sensor_id;sensor_type;location;lat;lon;timestamp;pressure;altitude;pressure_sealevel;temperature;humidity
15674;BME280;7937;48.090;16.212;2023-07-28T00:00:09;97222.56;;;15.90;74.97
15674;BME280;7937;48.090;16.212;2023-07-28T00:03:13;97223.66;;;15.89;75.07
15674;BME280;7937;48.090;16.212;2023-07-28T00:06:15;97230.34;;;15.91;74.77
15674;BME280;7937;48.090;16.212;2023-07-28T00:09:18;97221.47;;;15.91;74.58
15674;BME280;7937;48.090;16.212;2023-07-28T00:12:20;97227.59;;;15.96;73.90
15674;BME280;7937;48.090;16.212;2023-07-28T00:15:23;97221.44;;;15.96;74.32
15674;BME280;7937;48.090;16.212;2023-07-28T00:18:25;97230.28;;;15.96;74.31
15674;BME280;7937;48.090;16.212;2023-07-28T00:21:28;97231.09;;;15.97;74.65
15674;BME280;7937;48.090;16.212;2023-07-28T00:24:30;97219.31;;;15.93;74.66
15674;BME280;7937;48.090;16.212;2023-07-28T00:27:33;97228.91;;;15.99;74.72
15674;BME280;7937;48.090;16.212;2023-07-28T00:30:35;97232.63;;;16.03;74.68
15674;BME280;7937;48.090;16.212;2023-07-28T00:33:37;97229.63;;;16.05;74.02
15674;BME280;7937;48.090;16.212;2023-07-28T00:36:40;97219.75;;;16.00;73.43
15674;BME280;7937;48.090;16.212;2023-07-28T00:39:43;97237.16;;;16.27;72.71
15674;BME280;7937;48.090;16.212;2023-07-28T00:42:46;97225.75;;;16.35;72.36
15674;BME280;7937;48.090;16.212;2023-07-28T00:45:49;97235.22;;;16.32;72.26
15674;BME280;7937;48.090;16.212;2023-07-28T00:48:52;97225.56;;;16.31;72.32
15674;BME280;7937;48.090;16.212;2023-07-28T00:51:55;97233.88;;;16.30;72.65
15674;BME280;7937;48.090;16.212;2023-07-28T00:55:02;97222.47;;;16.19;72.84
15674;BME280;7937;48.090;16.212;2023-07-28T00:58:04;97227.72;;;16.29;72.93
15674;BME280;7937;48.090;16.212;2023-07-28T01:01:06;97221.03;;;16.27;73.39
15674;BME280;7937;48.090;16.212;2023-07-28T01:04:09;97221.31;;;16.25;73.41
15674;BME280;7937;48.090;16.212;2023-07-28T01:07:21;97219.44;;;16.25;73.25
15674;BME280;7937;48.090;16.212;2023-07-28T01:10:31;97212.19;;;16.26;73.38
15674;BME280;7937;48.090;16.212;2023-07-28T01:13:34;97177.50;;;16.06;73.16
15674;BME280;7937;48.090;16.212;2023-07-28T01:16:37;97190.88;;;16.11;73.89
15674;BME280;7937;48.090;16.212;2023-07-28T01:19:39;97211.66;;;16.24;74.03
15674;BME280;7937;48.090;16.212;2023-07-28T01:23:05;97212.75;;;16.23;74.22
15674;BME280;7937;48.090;16.212;2023-07-28T01:26:10;97209.25;;;16.22;74.33
15674;BME280;7937;48.090;16.212;2023-07-28T01:29:14;97219.50;;;16.20;74.90
15674;BME280;7937;48.090;16.212;2023-07-28T01:32:17;97194.50;;;16.01;75.38
15674;BME280;7937;48.090;16.212;2023-07-28T01:35:19;97220.38;;;16.16;75.89
15674;BME280;7937;48.090;16.212;2023-07-28T01:38:22;97215.28;;;16.14;76.14
15674;BME280;7937;48.090;16.212;2023-07-28T01:41:24;97209.09;;;16.14;76.42
15674;BME280;7937;48.090;16.212;2023-07-28T01:44:27;97205.63;;;16.13;76.70
15674;BME280;7937;48.090;16.212;2023-07-28T01:47:29;97211.56;;;16.10;76.77
15674;BME280;7937;48.090;16.212;2023-07-28T01:50:32;97145.78;;;15.65;77.03
15674;BME280;7937;48.090;16.212;2023-07-28T01:53:34;97203.88;;;16.04;76.84
15674;BME280;7937;48.090;16.212;2023-07-28T01:56:36;97199.06;;;16.00;76.94
15674;BME280;7937;48.090;16.212;2023-07-28T01:59:39;97194.28;;;15.97;77.05
15674;BME280;7937;48.090;16.212;2023-07-28T02:02:41;97188.38;;;15.95;77.25
15674;BME280;7937;48.090;16.212;2023-07-28T02:05:43;97184.16;;;15.89;77.58
15674;BME280;7937;48.090;16.212;2023-07-28T02:08:54;97178.06;;;15.84;77.91
15674;BME280;7937;48.090;16.212;2023-07-28T02:12:08;97182.94;;;15.82;78.30
15674;BME280;7937;48.090;16.212;2023-07-28T02:15:11;97183.00;;;15.77;78.61
15674;BME280;7937;48.090;16.212;2023-07-28T02:18:14;97178.69;;;15.76;78.80
15674;BME280;7937;48.090;16.212;2023-07-28T02:21:16;97180.06;;;15.73;79.03
15674;BME280;7937;48.090;16.212;2023-07-28T02:24:19;97184.13;;;15.70;79.29
15674;BME280;7937;48.090;16.212;2023-07-28T02:27:21;97183.31;;;15.70;79.26
15674;BME280;7937;48.090;16.212;2023-07-28T02:30:23;97167.59;;;15.58;79.48
15674;BME280;7937;48.090;16.212;2023-07-28T02:33:27;97185.81;;;15.66;80.12
15674;BME280;7937;48.090;16.212;2023-07-28T02:36:32;97185.28;;;15.64;80.09
15674;BME280;7937;48.090;16.212;2023-07-28T02:39:36;97175.63;;;15.63;80.20
15674;BME280;7937;48.090;16.212;2023-07-28T02:42:38;97179.91;;;15.64;80.60
15674;BME280;7937;48.090;16.212;2023-07-28T02:45:41;97174.56;;;15.59;80.62
15674;BME280;7937;48.090;16.212;2023-07-28T02:48:44;97169.25;;;15.54;80.98
15674;BME280;7937;48.090;16.212;2023-07-28T02:51:46;97185.34;;;15.54;80.99
15674;BME280;7937;48.090;16.212;2023-07-28T02:54:48;97182.16;;;15.52;80.94
15674;BME280;7937;48.090;16.212;2023-07-28T02:57:52;97177.59;;;15.53;80.92
15674;BME280;7937;48.090;16.212;2023-07-28T03:00:54;97175.22;;;15.46;81.37
15674;BME280;7937;48.090;16.212;2023-07-28T03:04:04;97167.19;;;15.46;81.86
15674;BME280;7937;48.090;16.212;2023-07-28T03:07:22;97166.19;;;15.42;82.10
15674;BME280;7937;48.090;16.212;2023-07-28T03:10:33;97160.28;;;15.40;82.03
15674;BME280;7937;48.090;16.212;2023-07-28T03:13:35;97174.00;;;15.38;82.04
15674;BME280;7937;48.090;16.212;2023-07-28T03:16:37;97170.78;;;15.36;82.37
15674;BME280;7937;48.090;16.212;2023-07-28T03:19:40;97154.34;;;15.19;82.97
15674;BME280;7937;48.090;16.212;2023-07-28T03:22:42;97176.50;;;15.30;83.10
15674;BME280;7937;48.090;16.212;2023-07-28T03:25:45;97166.31;;;15.27;83.19
15674;BME280;7937;48.090;16.212;2023-07-28T03:28:47;97162.84;;;15.26;83.30
15674;BME280;7937;48.090;16.212;2023-07-28T03:31:51;97146.84;;;15.16;83.71
15674;BME280;7937;48.090;16.212;2023-07-28T03:34:54;97166.38;;;15.21;83.58
15674;BME280;7937;48.090;16.212;2023-07-28T03:37:56;97174.94;;;15.23;83.87
15674;BME280;7937;48.090;16.212;2023-07-28T03:40:58;97170.72;;;15.17;84.14
15674;BME280;7937;48.090;16.212;2023-07-28T03:44:01;97164.53;;;15.17;84.32
15674;BME280;7937;48.090;16.212;2023-07-28T03:47:04;97152.59;;;15.04;84.39
15674;BME280;7937;48.090;16.212;2023-07-28T03:50:06;97171.00;;;15.16;84.17
15674;BME280;7937;48.090;16.212;2023-07-28T03:53:09;97152.59;;;15.04;83.95
15674;BME280;7937;48.090;16.212;2023-07-28T03:56:11;97165.34;;;15.17;84.05
15674;BME280;7937;48.090;16.212;2023-07-28T03:59:13;97162.09;;;15.20;84.15
15674;BME280;7937;48.090;16.212;2023-07-28T04:02:15;97160.19;;;15.21;84.28
15674;BME280;7937;48.090;16.212;2023-07-28T04:05:18;97157.53;;;15.21;84.35
15674;BME280;7937;48.090;16.212;2023-07-28T04:08:20;97155.13;;;15.19;84.28
15674;BME280;7937;48.090;16.212;2023-07-28T04:11:22;97158.84;;;15.23;84.46
15674;BME280;7937;48.090;16.212;2023-07-28T04:14:25;97152.41;;;15.25;84.26
15674;BME280;7937;48.090;16.212;2023-07-28T04:17:28;97143.53;;;15.24;84.20
15674;BME280;7937;48.090;16.212;2023-07-28T04:20:30;97146.53;;;15.22;83.96
15674;BME280;7937;48.090;16.212;2023-07-28T04:23:32;97147.22;;;15.33;83.97
15674;BME280;7937;48.090;16.212;2023-07-28T04:26:35;97152.78;;;15.37;83.94
15674;BME280;7937;48.090;16.212;2023-07-28T04:29:38;97157.59;;;15.40;83.69
15674;BME280;7937;48.090;16.212;2023-07-28T04:32:42;97110.41;;;15.10;83.59
15674;BME280;7937;48.090;16.212;2023-07-28T04:35:54;97162.34;;;15.48;83.37
15674;BME280;7937;48.090;16.212;2023-07-28T04:39:06;97135.09;;;15.36;83.25
15674;BME280;7937;48.090;16.212;2023-07-28T04:42:09;97146.25;;;15.48;82.85
15674;BME280;7937;48.090;16.212;2023-07-28T04:45:15;97153.38;;;15.58;82.44
15674;BME280;7937;48.090;16.212;2023-07-28T04:48:17;97156.56;;;15.60;82.03
15674;BME280;7937;48.090;16.212;2023-07-28T04:51:19;97137.66;;;15.46;81.40
15674;BME280;7937;48.090;16.212;2023-07-28T04:54:44;97154.66;;;15.60;81.37
15674;BME280;7937;48.090;16.212;2023-07-28T04:57:48;97164.81;;;15.68;80.86
15674;BME280;7937;48.090;16.212;2023-07-28T05:00:51;97169.03;;;15.74;80.80
15674;BME280;7937;48.090;16.212;2023-07-28T05:03:53;97168.97;;;15.80;80.70
15674;BME280;7937;48.090;16.212;2023-07-28T05:07:01;97167.81;;;15.86;80.70
15674;BME280;7937;48.090;16.212;2023-07-28T05:10:04;97178.78;;;15.89;80.54
15674;BME280;7937;48.090;16.212;2023-07-28T05:13:08;97175.78;;;15.96;80.49
15674;BME280;7937;48.090;16.212;2023-07-28T05:16:21;97157.53;;;15.93;80.41
15674;BME280;7937;48.090;16.212;2023-07-28T05:19:38;97174.25;;;16.09;79.75
15674;BME280;7937;48.090;16.212;2023-07-28T05:23:20;97158.41;;;16.07;79.68
15674;BME280;7937;48.090;16.212;2023-07-28T05:26:23;97160.72;;;16.14;79.72
15674;BME280;7937;48.090;16.212;2023-07-28T05:29:26;97172.66;;;16.27;79.46
15674;BME280;7937;48.090;16.212;2023-07-28T05:32:34;97171.56;;;16.28;79.60
15674;BME280;7937;48.090;16.212;2023-07-28T05:36:01;97177.09;;;16.36;79.64
15674;BME280;7937;48.090;16.212;2023-07-28T05:39:07;97170.91;;;16.36;79.31
15674;BME280;7937;48.090;16.212;2023-07-28T05:42:14;97173.59;;;16.36;78.89
15674;BME280;7937;48.090;16.212;2023-07-28T05:45:17;97178.09;;;16.40;78.81
15674;BME280;7937;48.090;16.212;2023-07-28T05:48:19;97169.44;;;16.43;78.79
15674;BME280;7937;48.090;16.212;2023-07-28T05:51:22;97183.91;;;16.47;78.98
15674;BME280;7937;48.090;16.212;2023-07-28T05:54:25;97167.84;;;16.42;79.18
15674;BME280;7937;48.090;16.212;2023-07-28T05:57:27;97178.38;;;16.58;79.15
15674;BME280;7937;48.090;16.212;2023-07-28T06:00:31;97180.91;;;16.68;79.48
15674;BME280;7937;48.090;16.212;2023-07-28T06:03:34;97174.28;;;16.79;79.29
15674;BME280;7937;48.090;16.212;2023-07-28T06:06:49;97176.81;;;16.89;79.18
15674;BME280;7937;48.090;16.212;2023-07-28T06:09:52;97171.28;;;16.99;78.69
15674;BME280;7937;48.090;16.212;2023-07-28T06:12:54;97178.66;;;17.08;78.67
15674;BME280;7937;48.090;16.212;2023-07-28T06:15:56;97174.78;;;17.14;77.54
15674;BME280;7937;48.090;16.212;2023-07-28T06:19:00;97174.41;;;17.20;75.80
15674;BME280;7937;48.090;16.212;2023-07-28T06:22:02;97182.66;;;17.24;74.28
15674;BME280;7937;48.090;16.212;2023-07-28T06:25:07;97162.06;;;17.19;73.61
15674;BME280;7937;48.090;16.212;2023-07-28T06:28:11;97176.31;;;17.34;73.34
15674;BME280;7937;48.090;16.212;2023-07-28T06:31:14;97178.41;;;17.37;73.66
15674;BME280;7937;48.090;16.212;2023-07-28T06:34:16;97173.44;;;17.44;74.50
15674;BME280;7937;48.090;16.212;2023-07-28T06:37:21;97177.22;;;17.57;74.00
15674;BME280;7937;48.090;16.212;2023-07-28T06:40:24;97171.28;;;17.73;73.48
15674;BME280;7937;48.090;16.212;2023-07-28T06:43:27;97164.47;;;17.90;72.94
15674;BME280;7937;48.090;16.212;2023-07-28T06:46:29;97166.63;;;18.01;72.79
15674;BME280;7937;48.090;16.212;2023-07-28T06:49:32;97163.44;;;18.13;72.54
15674;BME280;7937;48.090;16.212;2023-07-28T06:52:35;97162.09;;;18.24;72.55
15674;BME280;7937;48.090;16.212;2023-07-28T06:55:38;97140.84;;;18.23;72.35
15674;BME280;7937;48.090;16.212;2023-07-28T06:58:41;97157.56;;;18.47;71.79
15674;BME280;7937;48.090;16.212;2023-07-28T07:01:52;97132.75;;;18.45;70.78
15674;BME280;7937;48.090;16.212;2023-07-28T07:04:54;97157.44;;;18.75;69.88
15674;BME280;7937;48.090;16.212;2023-07-28T07:07:56;97157.84;;;18.82;69.03
15674;BME280;7937;48.090;16.212;2023-07-28T07:10:59;97162.22;;;19.00;67.93
15674;BME280;7937;48.090;16.212;2023-07-28T07:14:01;97165.94;;;19.13;67.36
15674;BME280;7937;48.090;16.212;2023-07-28T07:17:04;97163.16;;;19.27;67.28
15674;BME280;7937;48.090;16.212;2023-07-28T07:20:07;97162.44;;;19.44;66.22
15674;BME280;7937;48.090;16.212;2023-07-28T07:23:09;97160.25;;;19.54;65.04
15674;BME280;7937;48.090;16.212;2023-07-28T07:26:12;97163.47;;;19.65;65.53
15674;BME280;7937;48.090;16.212;2023-07-28T07:29:14;97161.63;;;19.83;63.82
15674;BME280;7937;48.090;16.212;2023-07-28T07:32:16;97166.28;;;20.00;63.76
15674;BME280;7937;48.090;16.212;2023-07-28T07:35:19;97168.06;;;20.13;63.81
15674;BME280;7937;48.090;16.212;2023-07-28T07:38:21;97160.13;;;20.25;62.95
15674;BME280;7937;48.090;16.212;2023-07-28T07:41:24;97152.66;;;20.31;63.62
15674;BME280;7937;48.090;16.212;2023-07-28T07:44:26;97177.66;;;20.54;64.38
15674;BME280;7937;48.090;16.212;2023-07-28T07:47:29;97176.25;;;20.65;62.72
15674;BME280;7937;48.090;16.212;2023-07-28T07:50:31;97167.97;;;20.79;62.52
15674;BME280;7937;48.090;16.212;2023-07-28T07:53:33;97168.88;;;20.92;63.11
15674;BME280;7937;48.090;16.212;2023-07-28T07:56:36;97165.38;;;21.00;62.88
15674;BME280;7937;48.090;16.212;2023-07-28T07:59:38;97165.66;;;21.16;59.74
15674;BME280;7937;48.090;16.212;2023-07-28T08:02:40;97166.25;;;21.30;60.32
15674;BME280;7937;48.090;16.212;2023-07-28T08:05:47;97148.34;;;21.46;58.54
15674;BME280;7937;48.090;16.212;2023-07-28T08:08:49;97155.06;;;21.78;58.43
15674;BME280;7937;48.090;16.212;2023-07-28T08:11:54;97166.47;;;21.93;59.06
15674;BME280;7937;48.090;16.212;2023-07-28T08:14:57;97154.31;;;21.99;60.19
15674;BME280;7937;48.090;16.212;2023-07-28T08:17:59;97162.09;;;22.30;55.76
15674;BME280;7937;48.090;16.212;2023-07-28T08:21:02;97164.66;;;23.22;50.42
15674;BME280;7937;48.090;16.212;2023-07-28T08:24:04;97172.38;;;23.44;50.69
15674;BME280;7937;48.090;16.212;2023-07-28T08:27:06;97168.16;;;23.80;48.81
15674;BME280;7937;48.090;16.212;2023-07-28T08:30:10;97175.50;;;23.80;50.69
15674;BME280;7937;48.090;16.212;2023-07-28T08:33:13;97170.53;;;23.70;52.11
15674;BME280;7937;48.090;16.212;2023-07-28T08:36:15;97179.69;;;23.65;53.91
15674;BME280;7937;48.090;16.212;2023-07-28T08:39:18;97176.47;;;23.63;51.09
15674;BME280;7937;48.090;16.212;2023-07-28T08:42:21;97171.28;;;24.07;47.42
15674;BME280;7937;48.090;16.212;2023-07-28T08:45:26;97177.59;;;24.35;48.27
15674;BME280;7937;48.090;16.212;2023-07-28T08:48:29;97181.75;;;24.57;45.82
15674;BME280;7937;48.090;16.212;2023-07-28T08:51:34;97190.88;;;24.77;46.57
15674;BME280;7937;48.090;16.212;2023-07-28T08:54:39;97181.69;;;25.10;42.97
15674;BME280;7937;48.090;16.212;2023-07-28T08:57:41;97190.94;;;25.21;43.45
15674;BME280;7937;48.090;16.212;2023-07-28T09:00:45;97202.56;;;25.06;46.01
15674;BME280;7937;48.090;16.212;2023-07-28T09:03:51;97190.88;;;25.33;44.99
15674;BME280;7937;48.090;16.212;2023-07-28T09:06:54;97187.81;;;25.35;45.19
15674;BME280;7937;48.090;16.212;2023-07-28T09:09:59;97192.59;;;25.10;48.44
15674;BME280;7937;48.090;16.212;2023-07-28T09:13:03;97186.84;;;24.99;46.44
15674;BME280;7937;48.090;16.212;2023-07-28T09:16:19;97211.97;;;25.20;44.29
15674;BME280;7937;48.090;16.212;2023-07-28T09:19:22;97204.25;;;25.38;44.94
15674;BME280;7937;48.090;16.212;2023-07-28T09:22:24;97204.25;;;25.38;45.39
15674;BME280;7937;48.090;16.212;2023-07-28T09:25:28;97221.41;;;25.39;46.48
15674;BME280;7937;48.090;16.212;2023-07-28T09:28:38;97203.91;;;25.56;44.46
15674;BME280;7937;48.090;16.212;2023-07-28T09:31:45;97222.06;;;25.64;43.05
15674;BME280;7937;48.090;16.212;2023-07-28T09:34:48;97221.66;;;25.78;43.06
15674;BME280;7937;48.090;16.212;2023-07-28T09:37:51;97179.16;;;25.77;42.68
15674;BME280;7937;48.090;16.212;2023-07-28T09:40:57;97192.47;;;25.66;47.26
15674;BME280;7937;48.090;16.212;2023-07-28T09:44:09;97201.63;;;25.73;45.48
15674;BME280;7937;48.090;16.212;2023-07-28T09:47:18;97208.50;;;25.67;43.79
15674;BME280;7937;48.090;16.212;2023-07-28T09:50:24;97191.63;;;25.62;43.42
15674;BME280;7937;48.090;16.212;2023-07-28T09:53:28;97202.69;;;25.69;45.25
15674;BME280;7937;48.090;16.212;2023-07-28T09:56:31;97211.31;;;25.55;44.40
15674;BME280;7937;48.090;16.212;2023-07-28T09:59:38;97232.97;;;25.64;44.06
15674;BME280;7937;48.090;16.212;2023-07-28T10:02:41;97228.28;;;25.48;44.68
15674;BME280;7937;48.090;16.212;2023-07-28T10:05:44;97220.94;;;25.21;47.13
15674;BME280;7937;48.090;16.212;2023-07-28T10:08:47;97227.69;;;25.11;46.54
15674;BME280;7937;48.090;16.212;2023-07-28T10:11:55;97218.81;;;25.02;47.61
15674;BME280;7937;48.090;16.212;2023-07-28T10:15:02;97211.91;;;25.05;45.37
15674;BME280;7937;48.090;16.212;2023-07-28T10:18:06;97222.50;;;24.94;46.26
15674;BME280;7937;48.090;16.212;2023-07-28T10:21:10;97234.38;;;24.74;46.49
15674;BME280;7937;48.090;16.212;2023-07-28T10:24:17;97231.47;;;24.54;49.77
15674;BME280;7937;48.090;16.212;2023-07-28T10:27:45;97227.31;;;24.44;51.43
15674;BME280;7937;48.090;16.212;2023-07-28T10:30:55;97220.91;;;24.65;50.63
15674;BME280;7937;48.090;16.212;2023-07-28T10:33:57;97201.66;;;24.45;50.37
15674;BME280;7937;48.090;16.212;2023-07-28T10:37:00;97228.41;;;24.68;49.82
15674;BME280;7937;48.090;16.212;2023-07-28T10:46:54;97220.53;;;24.66;48.37
15674;BME280;7937;48.090;16.212;2023-07-28T10:50:04;97182.25;;;24.35;48.13
15674;BME280;7937;48.090;16.212;2023-07-28T10:53:14;97206.19;;;24.54;48.15
15674;BME280;7937;48.090;16.212;2023-07-28T10:56:20;97208.91;;;24.41;50.18
15674;BME280;7937;48.090;16.212;2023-07-28T10:59:29;97205.97;;;24.34;49.00
15674;BME280;7937;48.090;16.212;2023-07-28T11:02:42;97163.09;;;24.31;50.78
15674;BME280;7937;48.090;16.212;2023-07-28T11:05:45;97178.06;;;24.78;49.25
15674;BME280;7937;48.090;16.212;2023-07-28T11:08:48;97178.31;;;25.01;49.51
15674;BME280;7937;48.090;16.212;2023-07-28T11:11:52;97216.31;;;25.37;47.75
15674;BME280;7937;48.090;16.212;2023-07-28T11:14:59;97140.72;;;24.78;47.90
15674;BME280;7937;48.090;16.212;2023-07-28T11:18:03;97162.03;;;24.88;50.26
15674;BME280;7937;48.090;16.212;2023-07-28T11:21:06;97133.78;;;24.53;47.96
15674;BME280;7937;48.090;16.212;2023-07-28T11:24:10;97146.06;;;24.47;48.28
15674;BME280;7937;48.090;16.212;2023-07-28T11:27:18;97207.69;;;24.79;50.50
15674;BME280;7937;48.090;16.212;2023-07-28T11:30:21;97219.13;;;24.85;50.51
15674;BME280;7937;48.090;16.212;2023-07-28T11:33:24;97115.34;;;24.22;48.02
15674;BME280;7937;48.090;16.212;2023-07-28T11:36:29;97179.72;;;24.82;47.43
15674;BME280;7937;48.090;16.212;2023-07-28T11:39:33;97115.81;;;24.64;45.22
15674;BME280;7937;48.090;16.212;2023-07-28T11:42:43;97177.16;;;25.30;47.12
15674;BME280;7937;48.090;16.212;2023-07-28T11:45:46;97182.44;;;25.38;47.60
15674;BME280;7937;48.090;16.212;2023-07-28T11:48:49;97132.47;;;25.18;48.02
15674;BME280;7937;48.090;16.212;2023-07-28T11:51:54;97181.50;;;25.62;44.40
15674;BME280;7937;48.090;16.212;2023-07-28T11:55:07;97098.97;;;25.18;48.10
15674;BME280;7937;48.090;16.212;2023-07-28T11:58:09;97115.91;;;25.11;47.10
15674;BME280;7937;48.090;16.212;2023-07-28T12:01:14;97121.66;;;25.38;45.26
15674;BME280;7937;48.090;16.212;2023-07-28T12:04:22;97195.50;;;25.92;44.77
15674;BME280;7937;48.090;16.212;2023-07-28T12:07:30;97171.53;;;25.86;44.56
15674;BME280;7937;48.090;16.212;2023-07-28T12:10:33;97133.53;;;25.45;46.27
15674;BME280;7937;48.090;16.212;2023-07-28T12:13:51;97183.97;;;25.83;46.37
15674;BME280;7937;48.090;16.212;2023-07-28T12:16:57;97088.47;;;25.52;42.94
15674;BME280;7937;48.090;16.212;2023-07-28T12:20:04;97126.13;;;25.46;44.22
15674;BME280;7937;48.090;16.212;2023-07-28T12:23:17;97132.94;;;25.52;44.88
15674;BME280;7937;48.090;16.212;2023-07-28T12:26:23;97096.41;;;25.57;43.68
15674;BME280;7937;48.090;16.212;2023-07-28T12:29:25;97175.72;;;26.15;42.58
15674;BME280;7937;48.090;16.212;2023-07-28T12:32:31;97091.09;;;25.80;41.77
15674;BME280;7937;48.090;16.212;2023-07-28T12:35:38;97148.00;;;26.13;44.23
15674;BME280;7937;48.090;16.212;2023-07-28T12:38:43;97174.81;;;26.42;43.90
15674;BME280;7937;48.090;16.212;2023-07-28T12:41:46;97028.75;;;25.46;43.08
15674;BME280;7937;48.090;16.212;2023-07-28T12:45:09;97151.91;;;26.31;43.12
15674;BME280;7937;48.090;16.212;2023-07-28T12:48:18;97154.19;;;26.29;42.54
15674;BME280;7937;48.090;16.212;2023-07-28T12:51:25;97190.44;;;26.26;42.38
15674;BME280;7937;48.090;16.212;2023-07-28T12:54:30;97114.16;;;25.51;44.71
15674;BME280;7937;48.090;16.212;2023-07-28T12:57:45;97205.94;;;25.74;43.77
15674;BME280;7937;48.090;16.212;2023-07-28T13:00:50;97190.63;;;25.38;44.66
15674;BME280;7937;48.090;16.212;2023-07-28T13:03:55;97149.97;;;24.89;46.87
15674;BME280;7937;48.090;16.212;2023-07-28T13:06:58;97099.09;;;24.50;46.82
15674;BME280;7937;48.090;16.212;2023-07-28T13:10:05;97137.25;;;24.65;48.08
15674;BME280;7937;48.090;16.212;2023-07-28T13:13:08;97164.91;;;24.67;47.17
15674;BME280;7937;48.090;16.212;2023-07-28T13:16:15;97211.25;;;24.95;48.94
15674;BME280;7937;48.090;16.212;2023-07-28T13:19:18;97189.38;;;24.52;50.51
15674;BME280;7937;48.090;16.212;2023-07-28T13:22:21;97213.16;;;24.67;51.42
15674;BME280;7937;48.090;16.212;2023-07-28T13:25:24;97227.97;;;24.54;51.35
15674;BME280;7937;48.090;16.212;2023-07-28T13:28:27;97096.63;;;23.80;47.65
15674;BME280;7937;48.090;16.212;2023-07-28T13:31:38;97170.81;;;24.29;47.48
15674;BME280;7937;48.090;16.212;2023-07-28T13:35:08;97169.81;;;24.09;47.88
15674;BME280;7937;48.090;16.212;2023-07-28T13:38:11;97041.22;;;23.23;48.35
15674;BME280;7937;48.090;16.212;2023-07-28T13:41:14;97173.34;;;23.98;49.19
15674;BME280;7937;48.090;16.212;2023-07-28T13:44:17;97122.56;;;23.53;51.94
15674;BME280;7937;48.090;16.212;2023-07-28T13:47:19;97190.22;;;23.66;51.56
15674;BME280;7937;48.090;16.212;2023-07-28T13:50:22;97160.88;;;23.60;51.63
15674;BME280;7937;48.090;16.212;2023-07-28T13:53:39;97162.75;;;23.47;52.42
15674;BME280;7937;48.090;16.212;2023-07-28T13:56:42;97053.13;;;22.73;55.06
15674;BME280;7937;48.090;16.212;2023-07-28T13:59:47;97208.31;;;23.62;57.40
15674;BME280;7937;48.090;16.212;2023-07-28T14:02:50;97228.94;;;23.51;59.07
15674;BME280;7937;48.090;16.212;2023-07-28T14:05:52;97158.56;;;22.92;59.19
15674;BME280;7937;48.090;16.212;2023-07-28T14:08:55;97161.75;;;22.94;58.64
15674;BME280;7937;48.090;16.212;2023-07-28T14:11:58;97202.56;;;23.18;56.57
15674;BME280;7937;48.090;16.212;2023-07-28T14:15:01;97163.41;;;22.86;57.33
15674;BME280;7937;48.090;16.212;2023-07-28T14:18:03;97143.66;;;22.77;58.46
15674;BME280;7937;48.090;16.212;2023-07-28T14:21:07;97140.16;;;22.56;58.91
15674;BME280;7937;48.090;16.212;2023-07-28T14:24:10;97225.84;;;23.40;57.30
15674;BME280;7937;48.090;16.212;2023-07-28T14:27:13;97095.41;;;22.62;56.83
15674;BME280;7937;48.090;16.212;2023-07-28T14:30:15;97188.72;;;23.57;56.62
15674;BME280;7937;48.090;16.212;2023-07-28T14:33:18;97231.63;;;23.97;55.98
15674;BME280;7937;48.090;16.212;2023-07-28T14:36:20;97229.81;;;24.01;56.94
15674;BME280;7937;48.090;16.212;2023-07-28T14:39:23;97234.09;;;24.02;58.00
15674;BME280;7937;48.090;16.212;2023-07-28T14:42:25;97221.16;;;23.99;57.02
15674;BME280;7937;48.090;16.212;2023-07-28T14:45:27;97230.38;;;24.06;58.69
15674;BME280;7937;48.090;16.212;2023-07-28T14:48:31;97224.69;;;24.11;58.67
15674;BME280;7937;48.090;16.212;2023-07-28T14:51:37;97219.13;;;24.20;59.71
15674;BME280;7937;48.090;16.212;2023-07-28T14:54:39;97208.47;;;24.27;56.79
15674;BME280;7937;48.090;16.212;2023-07-28T14:57:42;97188.97;;;24.25;55.81
15674;BME280;7937;48.090;16.212;2023-07-28T15:00:44;97212.31;;;24.51;53.65
15674;BME280;7937;48.090;16.212;2023-07-28T15:03:47;97204.25;;;24.54;55.54
15674;BME280;7937;48.090;16.212;2023-07-28T15:06:49;97209.34;;;24.56;57.55
15674;BME280;7937;48.090;16.212;2023-07-28T15:09:52;97202.69;;;24.41;57.92
15674;BME280;7937;48.090;16.212;2023-07-28T15:12:54;97199.63;;;24.30;57.06
15674;BME280;7937;48.090;16.212;2023-07-28T15:15:56;97202.34;;;24.30;57.27
15674;BME280;7937;48.090;16.212;2023-07-28T15:18:59;97195.19;;;24.26;56.77
15674;BME280;7937;48.090;16.212;2023-07-28T15:22:03;97198.34;;;24.28;56.78
15674;BME280;7937;48.090;16.212;2023-07-28T15:25:06;97196.69;;;24.11;55.87
15674;BME280;7937;48.090;16.212;2023-07-28T15:28:12;97194.53;;;24.16;53.97
15674;BME280;7937;48.090;16.212;2023-07-28T15:31:16;97197.03;;;24.09;53.24
15674;BME280;7937;48.090;16.212;2023-07-28T15:34:18;97190.56;;;24.14;53.67
15674;BME280;7937;48.090;16.212;2023-07-28T15:37:21;97188.97;;;24.13;55.00
15674;BME280;7937;48.090;16.212;2023-07-28T15:40:25;97192.47;;;24.13;54.85
15674;BME280;7937;48.090;16.212;2023-07-28T15:43:30;97188.72;;;24.18;54.81
15674;BME280;7937;48.090;16.212;2023-07-28T15:46:35;97115.75;;;23.83;55.39
15674;BME280;7937;48.090;16.212;2023-07-28T15:49:37;97184.06;;;24.31;55.99
15674;BME280;7937;48.090;16.212;2023-07-28T15:52:40;97193.84;;;24.44;55.01
15674;BME280;7937;48.090;16.212;2023-07-28T15:55:42;97181.09;;;24.48;55.53
15674;BME280;7937;48.090;16.212;2023-07-28T15:58:45;97201.34;;;24.75;53.57
15674;BME280;7937;48.090;16.212;2023-07-28T16:01:48;97184.16;;;24.59;54.34
15674;BME280;7937;48.090;16.212;2023-07-28T16:04:50;97206.38;;;24.61;55.25
15674;BME280;7937;48.090;16.212;2023-07-28T16:07:53;97212.75;;;24.53;54.37
15674;BME280;7937;48.090;16.212;2023-07-28T16:11:00;97210.63;;;24.34;53.72
15674;BME280;7937;48.090;16.212;2023-07-28T16:14:08;97209.28;;;24.15;54.09
15674;BME280;7937;48.090;16.212;2023-07-28T16:17:10;97207.81;;;24.06;54.82
15674;BME280;7937;48.090;16.212;2023-07-28T16:20:13;97228.09;;;24.08;56.91
15674;BME280;7937;48.090;16.212;2023-07-28T16:23:15;97220.06;;;24.00;54.25